Coppermine, Canada
Current Conditions -  °F | °C
As of 2:00 PM on Tuesday 27 Jan 2015 (Local Time) from CYCO Reporting Station
Light Snow Light Snow  
Wind Chill: -40°   Ceiling: 8000
Heat Index: -27°   Visibility: 3mi
Dew Point: -31°   Wind: 15mph
Humidity: 70%   Direction: 230°SW
Pressure: 30.14"   Gusts: 24mph
Location:  67.83°N, 115.08°W
Report Text: CYCO 272100Z 23013G21KT 3SM -SN BLSN SCT025 BKN080 M27/M31 A3014 RMK BLSN2SC1AC4 VIS VRB 2-4 SLP210
Loading
Personal Weather Stations






























Interactive Weather Map New forecast layout! Learn more

10-Day Weather Forecast

Advertisements
Track Severe Weather on mobile